sensor_id;sensor_type;location;lat;lon;timestamp;pressure;altitude;pressure_sealevel;temperature;humidity
10115;BME280;5097;43.260;27.812;2022-11-20T00:00:25;99819.63;;;18.24;80.06
10115;BME280;5097;43.260;27.812;2022-11-20T00:03:08;99822.13;;;18.16;80.19
10115;BME280;5097;43.260;27.812;2022-11-20T00:05:52;99806.38;;;18.22;79.65
10115;BME280;5097;43.260;27.812;2022-11-20T00:08:36;99791.34;;;18.31;79.22
10115;BME280;5097;43.260;27.812;2022-11-20T00:11:21;99787.97;;;18.49;78.39
10115;BME280;5097;43.260;27.812;2022-11-20T00:14:09;99742.91;;;18.15;78.74
10115;BME280;5097;43.260;27.812;2022-11-20T00:16:53;99773.59;;;18.20;78.98
10115;BME280;5097;43.260;27.812;2022-11-20T00:19:36;99790.50;;;18.50;78.51
10115;BME280;5097;43.260;27.812;2022-11-20T00:22:20;99804.03;;;18.49;78.40
10115;BME280;5097;43.260;27.812;2022-11-20T00:25:04;99790.22;;;18.43;78.71
10115;BME280;5097;43.260;27.812;2022-11-20T00:27:48;99796.16;;;18.47;78.69
10115;BME280;5097;43.260;27.812;2022-11-20T00:30:33;99787.66;;;18.13;79.69
10115;BME280;5097;43.260;27.812;2022-11-20T00:33:17;99803.16;;;18.29;79.46
10115;BME280;5097;43.260;27.812;2022-11-20T00:36:01;99799.50;;;18.39;78.74
10115;BME280;5097;43.260;27.812;2022-11-20T00:38:46;99785.97;;;18.21;79.34
10115;BME280;5097;43.260;27.812;2022-11-20T00:41:30;99815.38;;;18.21;79.94
10115;BME280;5097;43.260;27.812;2022-11-20T00:44:14;99809.22;;;18.31;79.22
10115;BME280;5097;43.260;27.812;2022-11-20T00:46:59;99804.28;;;18.26;79.31
10115;BME280;5097;43.260;27.812;2022-11-20T00:49:42;99788.34;;;18.15;78.82
10115;BME280;5097;43.260;27.812;2022-11-20T00:52:26;99805.56;;;18.22;79.03
10115;BME280;5097;43.260;27.812;2022-11-20T00:55:10;99797.78;;;18.19;78.75
10115;BME280;5097;43.260;27.812;2022-11-20T00:57:54;99801.72;;;18.15;79.49
10115;BME280;5097;43.260;27.812;2022-11-20T01:00:37;99816.34;;;18.11;79.59
10115;BME280;5097;43.260;27.812;2022-11-20T01:03:23;99824.22;;;18.02;80.48
10115;BME280;5097;43.260;27.812;2022-11-20T01:06:11;99830.59;;;18.21;79.67
10115;BME280;5097;43.260;27.812;2022-11-20T01:08:57;99820.56;;;18.13;78.91
10115;BME280;5097;43.260;27.812;2022-11-20T01:11:43;99824.06;;;18.04;80.73
10115;BME280;5097;43.260;27.812;2022-11-20T01:14:27;99820.28;;;18.16;80.74
10115;BME280;5097;43.260;27.812;2022-11-20T01:17:11;99823.16;;;18.34;79.63
10115;BME280;5097;43.260;27.812;2022-11-20T01:19:56;99805.94;;;18.17;80.18
10115;BME280;5097;43.260;27.812;2022-11-20T01:22:40;99766.34;;;17.82;80.11
10115;BME280;5097;43.260;27.812;2022-11-20T01:25:24;99810.63;;;18.25;79.86
10115;BME280;5097;43.260;27.812;2022-11-20T01:28:07;99808.81;;;18.35;79.26
10115;BME280;5097;43.260;27.812;2022-11-20T01:30:51;99812.31;;;18.36;79.15
10115;BME280;5097;43.260;27.812;2022-11-20T01:33:35;99809.19;;;18.40;78.95
10115;BME280;5097;43.260;27.812;2022-11-20T01:36:21;99796.69;;;18.51;78.26
10115;BME280;5097;43.260;27.812;2022-11-20T01:39:09;99795.53;;;18.34;78.66
10115;BME280;5097;43.260;27.812;2022-11-20T01:41:54;99799.78;;;18.36;79.18
10115;BME280;5097;43.260;27.812;2022-11-20T01:44:57;99798.22;;;18.34;78.48
10115;BME280;5097;43.260;27.812;2022-11-20T01:47:46;99777.13;;;18.21;78.85
10115;BME280;5097;43.260;27.812;2022-11-20T01:50:31;99801.91;;;18.42;78.69
10115;BME280;5097;43.260;27.812;2022-11-20T01:53:18;99795.84;;;18.31;78.74
10115;BME280;5097;43.260;27.812;2022-11-20T01:56:09;99789.22;;;18.35;78.58
10115;BME280;5097;43.260;27.812;2022-11-20T01:58:56;99788.34;;;17.95;80.82
10115;BME280;5097;43.260;27.812;2022-11-20T02:01:41;99783.41;;;18.00;80.02
10115;BME280;5097;43.260;27.812;2022-11-20T02:04:25;99766.75;;;17.87;79.77
10115;BME280;5097;43.260;27.812;2022-11-20T02:07:09;99781.94;;;17.86;80.01
10115;BME280;5097;43.260;27.812;2022-11-20T02:09:55;99781.44;;;17.92;80.26
10115;BME280;5097;43.260;27.812;2022-11-20T02:12:40;99782.91;;;17.75;82.47
10115;BME280;5097;43.260;27.812;2022-11-20T02:16:01;99756.47;;;17.72;81.47
10115;BME280;5097;43.260;27.812;2022-11-20T02:18:46;99784.75;;;17.85;80.87
10115;BME280;5097;43.260;27.812;2022-11-20T02:21:35;99791.72;;;17.97;80.91
10115;BME280;5097;43.260;27.812;2022-11-20T02:24:21;99774.06;;;17.75;80.45
10115;BME280;5097;43.260;27.812;2022-11-20T02:27:08;99789.56;;;17.91;80.16
10115;BME280;5097;43.260;27.812;2022-11-20T02:29:53;99781.13;;;17.86;80.76
10115;BME280;5097;43.260;27.812;2022-11-20T02:32:39;99791.84;;;17.96;80.53
10115;BME280;5097;43.260;27.812;2022-11-20T02:35:44;99791.03;;;17.95;79.92
10115;BME280;5097;43.260;27.812;2022-11-20T02:38:28;99791.03;;;17.95;79.94
10115;BME280;5097;43.260;27.812;2022-11-20T02:41:13;99778.31;;;17.87;79.81
10115;BME280;5097;43.260;27.812;2022-11-20T02:43:57;99783.94;;;17.84;80.31
10115;BME280;5097;43.260;27.812;2022-11-20T02:46:41;99779.00;;;17.89;80.20
10115;BME280;5097;43.260;27.812;2022-11-20T02:49:25;99767.94;;;17.94;80.54
10115;BME280;5097;43.260;27.812;2022-11-20T02:52:09;99756.34;;;17.84;80.83
10115;BME280;5097;43.260;27.812;2022-11-20T02:54:53;99748.66;;;18.00;80.92
10115;BME280;5097;43.260;27.812;2022-11-20T02:57:39;99703.75;;;17.74;80.45
10115;BME280;5097;43.260;27.812;2022-11-20T03:00:23;99765.72;;;18.29;80.02
10115;BME280;5097;43.260;27.812;2022-11-20T03:03:07;99772.63;;;18.31;80.12
10115;BME280;5097;43.260;27.812;2022-11-20T03:05:51;99767.84;;;18.45;79.58
10115;BME280;5097;43.260;27.812;2022-11-20T03:08:34;99769.09;;;18.40;79.37
10115;BME280;5097;43.260;27.812;2022-11-20T03:11:19;99752.78;;;18.24;80.66
10115;BME280;5097;43.260;27.812;2022-11-20T03:14:05;99758.41;;;18.31;79.74
10115;BME280;5097;43.260;27.812;2022-11-20T03:16:49;99726.63;;;18.18;80.07
10115;BME280;5097;43.260;27.812;2022-11-20T03:19:33;99748.28;;;18.24;80.55
10115;BME280;5097;43.260;27.812;2022-11-20T03:22:17;99726.31;;;18.31;79.60
10115;BME280;5097;43.260;27.812;2022-11-20T03:25:01;99758.69;;;18.57;78.93
10115;BME280;5097;43.260;27.812;2022-11-20T03:27:46;99752.34;;;18.48;79.05
10115;BME280;5097;43.260;27.812;2022-11-20T03:30:31;99716.34;;;18.33;79.15
10115;BME280;5097;43.260;27.812;2022-11-20T03:33:16;99762.03;;;18.59;78.82
10115;BME280;5097;43.260;27.812;2022-11-20T03:36:01;99761.19;;;18.68;78.33
10115;BME280;5097;43.260;27.812;2022-11-20T03:38:46;99751.88;;;18.72;77.89
10115;BME280;5097;43.260;27.812;2022-11-20T03:41:35;99740.09;;;18.46;78.13
10115;BME280;5097;43.260;27.812;2022-11-20T03:44:21;99746.00;;;18.49;78.27
10115;BME280;5097;43.260;27.812;2022-11-20T03:47:06;99674.00;;;18.08;78.29
10115;BME280;5097;43.260;27.812;2022-11-20T03:49:50;99735.59;;;18.36;78.02
10115;BME280;5097;43.260;27.812;2022-11-20T03:52:34;99736.47;;;18.37;78.37
10115;BME280;5097;43.260;27.812;2022-11-20T03:55:18;99715.22;;;18.16;78.44
10115;BME280;5097;43.260;27.812;2022-11-20T03:58:02;99711.38;;;17.99;79.77
10115;BME280;5097;43.260;27.812;2022-11-20T04:00:46;99700.44;;;18.02;79.30
10115;BME280;5097;43.260;27.812;2022-11-20T04:03:32;99680.00;;;17.91;79.80
10115;BME280;5097;43.260;27.812;2022-11-20T04:06:18;99686.88;;;17.84;79.82
10115;BME280;5097;43.260;27.812;2022-11-20T04:09:03;99697.34;;;18.06;80.47
10115;BME280;5097;43.260;27.812;2022-11-20T04:11:47;99703.22;;;18.00;80.68
10115;BME280;5097;43.260;27.812;2022-11-20T04:14:30;99698.19;;;18.17;79.82
10115;BME280;5097;43.260;27.812;2022-11-20T04:17:15;99699.59;;;18.21;79.95
10115;BME280;5097;43.260;27.812;2022-11-20T04:20:00;99686.78;;;18.24;79.38
10115;BME280;5097;43.260;27.812;2022-11-20T04:22:45;99671.72;;;18.23;79.09
10115;BME280;5097;43.260;27.812;2022-11-20T04:25:28;99679.19;;;18.20;79.29
10115;BME280;5097;43.260;27.812;2022-11-20T04:28:12;99676.50;;;18.30;78.98
10115;BME280;5097;43.260;27.812;2022-11-20T04:31:02;99682.16;;;18.17;78.73
10115;BME280;5097;43.260;27.812;2022-11-20T04:33:46;99648.34;;;17.86;80.17
10115;BME280;5097;43.260;27.812;2022-11-20T04:36:32;99686.22;;;18.01;79.76
10115;BME280;5097;43.260;27.812;2022-11-20T04:39:16;99646.97;;;17.92;79.14
10115;BME280;5097;43.260;27.812;2022-11-20T04:42:00;99639.22;;;17.89;79.07
10115;BME280;5097;43.260;27.812;2022-11-20T04:45:02;99679.88;;;18.12;79.01
10115;BME280;5097;43.260;27.812;2022-11-20T04:47:45;99654.16;;;18.01;78.68
10115;BME280;5097;43.260;27.812;2022-11-20T04:50:29;99695.66;;;18.25;78.12
10115;BME280;5097;43.260;27.812;2022-11-20T04:53:16;99673.28;;;18.26;78.37
10115;BME280;5097;43.260;27.812;2022-11-20T04:56:00;99653.88;;;18.04;77.72
10115;BME280;5097;43.260;27.812;2022-11-20T04:58:44;99681.56;;;18.23;77.93
10115;BME280;5097;43.260;27.812;2022-11-20T05:01:28;99701.97;;;18.43;77.41
10115;BME280;5097;43.260;27.812;2022-11-20T05:04:12;99698.03;;;18.48;77.11
10115;BME280;5097;43.260;27.812;2022-11-20T05:06:56;99699.00;;;18.47;76.74
10115;BME280;5097;43.260;27.812;2022-11-20T05:09:41;99692.53;;;18.30;77.40
10115;BME280;5097;43.260;27.812;2022-11-20T05:12:25;99686.19;;;18.40;77.28
10115;BME280;5097;43.260;27.812;2022-11-20T05:15:09;99688.88;;;18.31;77.44
10115;BME280;5097;43.260;27.812;2022-11-20T05:17:53;99682.16;;;18.17;77.77
10115;BME280;5097;43.260;27.812;2022-11-20T05:20:37;99689.47;;;18.05;78.15
10115;BME280;5097;43.260;27.812;2022-11-20T05:23:21;99675.66;;;18.00;78.36
10115;BME280;5097;43.260;27.812;2022-11-20T05:26:08;99689.44;;;18.15;77.99
10115;BME280;5097;43.260;27.812;2022-11-20T05:28:54;99694.53;;;18.18;77.98
10115;BME280;5097;43.260;27.812;2022-11-20T05:31:39;99697.34;;;18.26;77.50
10115;BME280;5097;43.260;27.812;2022-11-20T05:34:23;99696.50;;;18.35;77.24
10115;BME280;5097;43.260;27.812;2022-11-20T05:37:07;99697.91;;;18.39;77.11
10115;BME280;5097;43.260;27.812;2022-11-20T05:39:50;99702.81;;;18.34;77.04
10115;BME280;5097;43.260;27.812;2022-11-20T05:42:36;99575.94;;;17.31;77.75
10115;BME280;5097;43.260;27.812;2022-11-20T05:45:19;99688.47;;;18.16;76.88
10115;BME280;5097;43.260;27.812;2022-11-20T05:48:03;99706.91;;;18.19;77.56
10115;BME280;5097;43.260;27.812;2022-11-20T05:50:47;99721.53;;;18.34;77.38
10115;BME280;5097;43.260;27.812;2022-11-20T05:53:31;99712.94;;;18.50;76.53
10115;BME280;5097;43.260;27.812;2022-11-20T05:56:16;99696.31;;;18.47;76.00
10115;BME280;5097;43.260;27.812;2022-11-20T05:59:02;99718.41;;;18.39;76.69
10115;BME280;5097;43.260;27.812;2022-11-20T06:01:46;99724.03;;;18.65;76.00
10115;BME280;5097;43.260;27.812;2022-11-20T06:04:30;99721.81;;;18.61;76.01
10115;BME280;5097;43.260;27.812;2022-11-20T06:07:13;99714.31;;;18.74;75.04
10115;BME280;5097;43.260;27.812;2022-11-20T06:09:57;99708.53;;;18.69;75.50
10115;BME280;5097;43.260;27.812;2022-11-20T06:12:41;99729.75;;;18.90;74.69
10115;BME280;5097;43.260;27.812;2022-11-20T06:15:26;99738.91;;;18.97;74.57
10115;BME280;5097;43.260;27.812;2022-11-20T06:18:10;99734.38;;;19.07;74.15
10115;BME280;5097;43.260;27.812;2022-11-20T06:21:00;99737.13;;;19.25;73.29
10115;BME280;5097;43.260;27.812;2022-11-20T06:23:44;99730.06;;;19.34;72.83
10115;BME280;5097;43.260;27.812;2022-11-20T06:26:30;99732.84;;;19.33;72.96
10115;BME280;5097;43.260;27.812;2022-11-20T06:29:14;99708.66;;;19.24;71.96
10115;BME280;5097;43.260;27.812;2022-11-20T06:32:00;99738.38;;;19.59;71.50
10115;BME280;5097;43.260;27.812;2022-11-20T06:34:44;99738.47;;;19.67;71.07
10115;BME280;5097;43.260;27.812;2022-11-20T06:37:28;99733.75;;;19.79;70.34
10115;BME280;5097;43.260;27.812;2022-11-20T06:40:12;99740.59;;;19.91;70.07
10115;BME280;5097;43.260;27.812;2022-11-20T06:42:55;99749.75;;;19.99;69.55
10115;BME280;5097;43.260;27.812;2022-11-20T06:45:39;99735.41;;;19.34;71.54
10115;BME280;5097;43.260;27.812;2022-11-20T06:48:25;99733.66;;;19.43;72.32
10115;BME280;5097;43.260;27.812;2022-11-20T06:51:10;99744.16;;;19.92;70.61
10115;BME280;5097;43.260;27.812;2022-11-20T06:53:53;99737.25;;;20.07;69.83
10115;BME280;5097;43.260;27.812;2022-11-20T06:56:37;99741.69;;;20.17;69.55
10115;BME280;5097;43.260;27.812;2022-11-20T06:59:21;99730.44;;;19.67;70.35
10115;BME280;5097;43.260;27.812;2022-11-20T07:02:08;99734.25;;;19.92;70.66
10115;BME280;5097;43.260;27.812;2022-11-20T07:04:54;99742.22;;;19.84;70.05
10115;BME280;5097;43.260;27.812;2022-11-20T07:07:38;99726.84;;;20.04;69.10
10115;BME280;5097;43.260;27.812;2022-11-20T07:10:22;99705.41;;;19.76;69.51
10115;BME280;5097;43.260;27.812;2022-11-20T07:13:05;99725.59;;;20.35;68.24
10115;BME280;5097;43.260;27.812;2022-11-20T07:15:49;99761.44;;;20.52;67.20
10115;BME280;5097;43.260;27.812;2022-11-20T07:18:33;99753.44;;;20.60;67.61
10115;BME280;5097;43.260;27.812;2022-11-20T07:21:18;99758.34;;;20.83;66.02
10115;BME280;5097;43.260;27.812;2022-11-20T07:24:03;99748.41;;;20.57;67.05
10115;BME280;5097;43.260;27.812;2022-11-20T07:26:47;99749.34;;;20.48;67.44
10115;BME280;5097;43.260;27.812;2022-11-20T07:29:31;99719.63;;;20.05;68.40
10115;BME280;5097;43.260;27.812;2022-11-20T07:32:15;99752.94;;;20.56;67.58
10115;BME280;5097;43.260;27.812;2022-11-20T07:34:59;99752.28;;;20.36;67.74
10115;BME280;5097;43.260;27.812;2022-11-20T07:37:45;99752.78;;;20.40;67.53
10115;BME280;5097;43.260;27.812;2022-11-20T07:40:31;99759.19;;;20.65;67.20
10115;BME280;5097;43.260;27.812;2022-11-20T07:43:15;99760.50;;;20.61;66.89
10115;BME280;5097;43.260;27.812;2022-11-20T07:45:59;99718.00;;;20.48;67.34
10115;BME280;5097;43.260;27.812;2022-11-20T07:48:43;99741.19;;;20.75;66.77
10115;BME280;5097;43.260;27.812;2022-11-20T07:51:27;99733.25;;;20.48;67.19
10115;BME280;5097;43.260;27.812;2022-11-20T07:54:13;99721.56;;;20.57;67.13
10115;BME280;5097;43.260;27.812;2022-11-20T07:56:57;99741.41;;;20.82;66.26
10115;BME280;5097;43.260;27.812;2022-11-20T07:59:41;99745.13;;;20.89;66.35
10115;BME280;5097;43.260;27.812;2022-11-20T08:02:25;99716.41;;;20.64;66.49
10115;BME280;5097;43.260;27.812;2022-11-20T08:05:09;99751.09;;;20.75;66.02
10115;BME280;5097;43.260;27.812;2022-11-20T08:07:53;99728.09;;;20.54;65.97
10115;BME280;5097;43.260;27.812;2022-11-20T08:10:39;99718.66;;;20.68;65.79
10115;BME280;5097;43.260;27.812;2022-11-20T08:13:23;99723.50;;;20.91;65.09
10115;BME280;5097;43.260;27.812;2022-11-20T08:16:24;99755.81;;;20.99;65.33
10115;BME280;5097;43.260;27.812;2022-11-20T08:19:08;99752.59;;;20.77;65.95
10115;BME280;5097;43.260;27.812;2022-11-20T08:21:52;99729.22;;;20.25;66.89
10115;BME280;5097;43.260;27.812;2022-11-20T08:24:36;99764.38;;;20.76;66.31
10115;BME280;5097;43.260;27.812;2022-11-20T08:27:22;99734.59;;;20.52;66.19
10115;BME280;5097;43.260;27.812;2022-11-20T08:30:07;99765.28;;;20.67;65.76
10115;BME280;5097;43.260;27.812;2022-11-20T08:32:52;99759.78;;;20.69;66.55
10115;BME280;5097;43.260;27.812;2022-11-20T08:35:37;99772.63;;;20.65;66.26
10115;BME280;5097;43.260;27.812;2022-11-20T08:38:23;99759.63;;;20.34;67.14
10115;BME280;5097;43.260;27.812;2022-11-20T08:41:07;99761.16;;;20.55;67.16
10115;BME280;5097;43.260;27.812;2022-11-20T08:44:12;99718.72;;;20.32;67.09
10115;BME280;5097;43.260;27.812;2022-11-20T08:46:56;99719.88;;;20.56;66.60
10115;BME280;5097;43.260;27.812;2022-11-20T08:49:40;99751.34;;;20.46;67.17
10115;BME280;5097;43.260;27.812;2022-11-20T08:52:24;99705.25;;;20.50;66.78
10115;BME280;5097;43.260;27.812;2022-11-20T08:55:09;99732.31;;;20.57;66.39
10115;BME280;5097;43.260;27.812;2022-11-20T08:57:53;99737.34;;;20.60;67.47
10115;BME280;5097;43.260;27.812;2022-11-20T09:00:38;99739.72;;;20.81;66.17
10115;BME280;5097;43.260;27.812;2022-11-20T09:03:23;99693.53;;;20.33;67.44
10115;BME280;5097;43.260;27.812;2022-11-20T09:06:14;99731.53;;;20.47;67.28
10115;BME280;5097;43.260;27.812;2022-11-20T09:08:58;99733.31;;;20.74;66.95
10115;BME280;5097;43.260;27.812;2022-11-20T09:11:48;99701.59;;;20.51;66.44
10115;BME280;5097;43.260;27.812;2022-11-20T09:14:33;99735.06;;;20.83;65.83
10115;BME280;5097;43.260;27.812;2022-11-20T09:17:19;99729.84;;;20.82;66.05
10115;BME280;5097;43.260;27.812;2022-11-20T09:20:04;99698.91;;;20.77;65.84
10115;BME280;5097;43.260;27.812;2022-11-20T09:22:48;99720.88;;;20.99;65.69
10115;BME280;5097;43.260;27.812;2022-11-20T09:25:32;99699.44;;;20.55;66.40
10115;BME280;5097;43.260;27.812;2022-11-20T09:28:16;99710.09;;;20.47;66.40
10115;BME280;5097;43.260;27.812;2022-11-20T09:31:04;99703.72;;;20.48;66.76
10115;BME280;5097;43.260;27.812;2022-11-20T09:33:50;99700.53;;;20.26;66.89
10115;BME280;5097;43.260;27.812;2022-11-20T09:36:34;99732.63;;;20.54;66.79
10115;BME280;5097;43.260;27.812;2022-11-20T09:39:18;99708.03;;;20.40;66.98
10115;BME280;5097;43.260;27.812;2022-11-20T09:42:11;99712.66;;;20.12;67.25
10115;BME280;5097;43.260;27.812;2022-11-20T09:45:09;99710.28;;;20.27;67.57
10115;BME280;5097;43.260;27.812;2022-11-20T09:48:14;99700.91;;;20.13;68.26
10115;BME280;5097;43.260;27.812;2022-11-20T09:51:08;99694.41;;;20.16;68.02
10115;BME280;5097;43.260;27.812;2022-11-20T09:54:07;99697.69;;;20.46;67.31
10115;BME280;5097;43.260;27.812;2022-11-20T09:56:59;99697.81;;;20.62;66.76
10115;BME280;5097;43.260;27.812;2022-11-20T09:59:46;99690.31;;;21.00;65.49
10115;BME280;5097;43.260;27.812;2022-11-20T10:02:35;99694.41;;;20.60;66.76
10115;BME280;5097;43.260;27.812;2022-11-20T10:05:23;99689.81;;;20.97;65.54
10115;BME280;5097;43.260;27.812;2022-11-20T10:08:16;99693.31;;;20.89;65.27
10115;BME280;5097;43.260;27.812;2022-11-20T10:11:05;99685.78;;;20.92;65.12
10115;BME280;5097;43.260;27.812;2022-11-20T10:13:59;99684.41;;;21.23;64.01
10115;BME280;5097;43.260;27.812;2022-11-20T10:16:56;99676.66;;;21.20;63.87
10115;BME280;5097;43.260;27.812;2022-11-20T10:19:55;99658.84;;;21.10;63.75
10115;BME280;5097;43.260;27.812;2022-11-20T10:22:58;99633.63;;;20.69;64.26
10115;BME280;5097;43.260;27.812;2022-11-20T10:25:51;99625.66;;;20.59;65.13
10115;BME280;5097;43.260;27.812;2022-11-20T10:28:48;99664.56;;;21.16;63.75
10115;BME280;5097;43.260;27.812;2022-11-20T10:31:44;99662.50;;;21.09;64.73
10115;BME280;5097;43.260;27.812;2022-11-20T10:34:32;99655.75;;;21.40;63.79
10115;BME280;5097;43.260;27.812;2022-11-20T10:37:22;99655.91;;;21.38;63.60
10115;BME280;5097;43.260;27.812;2022-11-20T10:40:20;99649.00;;;21.27;63.48
10115;BME280;5097;43.260;27.812;2022-11-20T10:43:10;99648.09;;;21.10;64.13
10115;BME280;5097;43.260;27.812;2022-11-20T10:45:58;99636.13;;;21.39;63.03
10115;BME280;5097;43.260;27.812;2022-11-20T10:48:45;99653.03;;;21.23;63.29
10115;BME280;5097;43.260;27.812;2022-11-20T10:51:35;99640.13;;;21.35;62.64
10115;BME280;5097;43.260;27.812;2022-11-20T10:54:28;99598.63;;;20.87;63.00
10115;BME280;5097;43.260;27.812;2022-11-20T10:57:25;99597.81;;;20.60;64.43
10115;BME280;5097;43.260;27.812;2022-11-20T11:00:15;99615.44;;;20.89;63.33
10115;BME280;5097;43.260;27.812;2022-11-20T11:03:00;99612.31;;;21.02;63.32
10115;BME280;5097;43.260;27.812;2022-11-20T11:05:49;99644.16;;;21.31;62.61
10115;BME280;5097;43.260;27.812;2022-11-20T11:08:37;99641.66;;;21.38;62.26
10115;BME280;5097;43.260;27.812;2022-11-20T11:11:23;99632.41;;;21.40;62.34
10115;BME280;5097;43.260;27.812;2022-11-20T11:14:10;99631.91;;;20.94;63.45
10115;BME280;5097;43.260;27.812;2022-11-20T11:16:57;99625.63;;;21.20;62.95
10115;BME280;5097;43.260;27.812;2022-11-20T11:19:41;99624.34;;;20.63;64.37
10115;BME280;5097;43.260;27.812;2022-11-20T11:22:25;99624.22;;;20.47;65.45
10115;BME280;5097;43.260;27.812;2022-11-20T11:25:19;99637.97;;;21.04;63.40
10115;BME280;5097;43.260;27.812;2022-11-20T11:28:19;99640.75;;;21.21;62.74
10115;BME280;5097;43.260;27.812;2022-11-20T11:31:03;99643.50;;;21.46;61.84
10115;BME280;5097;43.260;27.812;2022-11-20T11:33:48;99646.03;;;21.04;62.93
10115;BME280;5097;43.260;27.812;2022-11-20T11:36:33;99658.19;;;21.17;62.52
10115;BME280;5097;43.260;27.812;2022-11-20T11:39:19;99614.84;;;21.03;62.37
10115;BME280;5097;43.260;27.812;2022-11-20T11:42:04;99653.13;;;21.14;62.07
10115;BME280;5097;43.260;27.812;2022-11-20T11:44:49;99674.09;;;21.45;61.81
10115;BME280;5097;43.260;27.812;2022-11-20T11:47:50;99673.34;;;21.26;62.54
10115;BME280;5097;43.260;27.812;2022-11-20T11:50:37;99672.81;;;21.65;61.40
10115;BME280;5097;43.260;27.812;2022-11-20T11:53:31;99675.50;;;21.73;60.96
10115;BME280;5097;43.260;27.812;2022-11-20T11:56:17;99680.06;;;21.81;60.32
10115;BME280;5097;43.260;27.812;2022-11-20T11:59:04;99673.41;;;21.51;60.96
10115;BME280;5097;43.260;27.812;2022-11-20T12:01:53;99688.97;;;21.73;61.57
10115;BME280;5097;43.260;27.812;2022-11-20T12:04:44;99676.97;;;21.51;61.60
10115;BME280;5097;43.260;27.812;2022-11-20T12:07:39;99678.25;;;20.70;63.44
10115;BME280;5097;43.260;27.812;2022-11-20T12:10:40;99690.66;;;20.97;62.79
10115;BME280;5097;43.260;27.812;2022-11-20T12:13:37;99678.63;;;21.09;62.70
10115;BME280;5097;43.260;27.812;2022-11-20T12:16:23;99676.59;;;21.46;62.03
10115;BME280;5097;43.260;27.812;2022-11-20T12:19:10;99672.13;;;21.20;62.54
10115;BME280;5097;43.260;27.812;2022-11-20T12:22:02;99667.94;;;21.18;62.15
10115;BME280;5097;43.260;27.812;2022-11-20T12:24:55;99630.44;;;21.08;62.10
10115;BME280;5097;43.260;27.812;2022-11-20T12:31:18;99628.34;;;21.28;61.42
10115;BME280;5097;43.260;27.812;2022-11-20T12:34:24;99657.59;;;21.39;61.78
10115;BME280;5097;43.260;27.812;2022-11-20T12:37:22;99664.00;;;21.47;61.90
10115;BME280;5097;43.260;27.812;2022-11-20T12:40:20;99630.97;;;21.54;60.91
10115;BME280;5097;43.260;27.812;2022-11-20T12:43:11;99650.69;;;21.29;61.53
10115;BME280;5097;43.260;27.812;2022-11-20T12:46:28;99654.41;;;21.36;61.30
10115;BME280;5097;43.260;27.812;2022-11-20T12:49:25;99653.31;;;21.20;61.97
10115;BME280;5097;43.260;27.812;2022-11-20T12:52:24;99651.38;;;20.96;62.59
10115;BME280;5097;43.260;27.812;2022-11-20T12:55:30;99654.88;;;20.62;63.54
10115;BME280;5097;43.260;27.812;2022-11-20T12:58:20;99652.84;;;20.64;63.44
10115;BME280;5097;43.260;27.812;2022-11-20T13:01:24;99659.59;;;20.68;63.29
10115;BME280;5097;43.260;27.812;2022-11-20T13:04:38;99650.00;;;20.39;64.62
10115;BME280;5097;43.260;27.812;2022-11-20T13:07:27;99644.94;;;20.81;62.86
10115;BME280;5097;43.260;27.812;2022-11-20T13:10:18;99646.88;;;20.70;63.21
10115;BME280;5097;43.260;27.812;2022-11-20T13:13:14;99633.47;;;20.70;63.07
10115;BME280;5097;43.260;27.812;2022-11-20T13:16:05;99630.19;;;20.85;62.64
10115;BME280;5097;43.260;27.812;2022-11-20T13:18:56;99652.25;;;20.97;62.83
10115;BME280;5097;43.260;27.812;2022-11-20T13:21:42;99637.97;;;21.04;62.23
10115;BME280;5097;43.260;27.812;2022-11-20T13:24:28;99628.88;;;20.89;62.63
10115;BME280;5097;43.260;27.812;2022-11-20T13:27:20;99644.34;;;20.95;62.66
10115;BME280;5097;43.260;27.812;2022-11-20T13:30:15;99637.50;;;20.74;63.13
10115;BME280;5097;43.260;27.812;2022-11-20T13:33:06;99633.63;;;20.69;63.22
10115;BME280;5097;43.260;27.812;2022-11-20T13:35:55;99608.97;;;20.73;62.32
10115;BME280;5097;43.260;27.812;2022-11-20T13:38:44;99638.56;;;20.82;62.65
10115;BME280;5097;43.260;27.812;2022-11-20T13:41:32;99638.63;;;20.90;62.53
10115;BME280;5097;43.260;27.812;2022-11-20T13:44:24;99638.56;;;20.82;62.83
10115;BME280;5097;43.260;27.812;2022-11-20T13:47:20;99645.03;;;21.05;61.85
10115;BME280;5097;43.260;27.812;2022-11-20T13:50:08;99639.72;;;20.79;62.79
10115;BME280;5097;43.260;27.812;2022-11-20T13:52:57;99617.63;;;20.59;62.77
10115;BME280;5097;43.260;27.812;2022-11-20T13:55:49;99649.41;;;20.72;63.25
10115;BME280;5097;43.260;27.812;2022-11-20T13:58:45;99510.34;;;20.06;62.30
10115;BME280;5097;43.260;27.812;2022-11-20T14:01:37;99642.50;;;20.96;62.56
10115;BME280;5097;43.260;27.812;2022-11-20T14:04:26;99638.25;;;20.85;62.67
10115;BME280;5097;43.260;27.812;2022-11-20T14:07:12;99619.16;;;20.62;63.01
10115;BME280;5097;43.260;27.812;2022-11-20T14:09:57;99619.94;;;20.54;62.86
10115;BME280;5097;43.260;27.812;2022-11-20T14:12:42;99657.69;;;20.34;64.60
10115;BME280;5097;43.260;27.812;2022-11-20T14:15:28;99648.47;;;19.92;65.87
10115;BME280;5097;43.260;27.812;2022-11-20T14:18:15;99617.22;;;20.01;64.80
10115;BME280;5097;43.260;27.812;2022-11-20T14:21:01;99647.22;;;20.23;64.39
10115;BME280;5097;43.260;27.812;2022-11-20T14:23:46;99633.81;;;20.49;63.66
10115;BME280;5097;43.260;27.812;2022-11-20T14:26:31;99628.66;;;20.30;64.36
10115;BME280;5097;43.260;27.812;2022-11-20T14:29:17;99602.09;;;20.18;63.94
10115;BME280;5097;43.260;27.812;2022-11-20T14:32:03;99639.28;;;20.39;63.99
10115;BME280;5097;43.260;27.812;2022-11-20T14:34:50;99608.41;;;20.35;63.74
10115;BME280;5097;43.260;27.812;2022-11-20T14:37:37;99634.91;;;20.38;64.30
10115;BME280;5097;43.260;27.812;2022-11-20T14:40:25;99591.91;;;20.04;64.47
10115;BME280;5097;43.260;27.812;2022-11-20T14:43:18;99621.78;;;20.27;64.39
10115;BME280;5097;43.260;27.812;2022-11-20T14:46:05;99620.97;;;20.08;65.04
10115;BME280;5097;43.260;27.812;2022-11-20T14:48:51;99598.09;;;19.96;65.07